< < Back
Terminal Aerodrome Forecast


Current Version              Previous Versions:   1  2  3  4  5  6  7  8  9  

Terminal Aerodrome Forecast

625
FTUS42 KJAX 221723
TAFJAX
TAF
KJAX 221723Z 2218/2318 09009KT P6SM SCT035 SCT250
     FM230000 VRB02KT P6SM FEW250
     FM231600 VRB04KT P6SM SCT035 SCT250=

Latest METAR

899
SAUS80 KWBC 231100
MTRJAX
METAR KJAX 231056Z 00000KT 10SM FEW050 FEW250 21/21 A3003 RMK AO2 SLP168
T02110206


USA.gov is the U.S. government's official web portal to all federal, state and local government web resources and services.